Diomicio Freitas Airport


Codes: SBCM/CCM
Name: Diomicio Freitas Airport
City: Criciuma
Country: Brazil
Elevation: 93 ft.
Wikipedia:

Photos at Diomicio Freitas Airport


   Photos courtesy of SpottingLog. You can add your own sightings and photos by signing up for a free trial today.



No photos found.

Weather at Diomicio Freitas Airport


Time (UTC)DescriptionTempratureWindCloud coverageVisibilityPressureHumidity
25-Jun-2024 12:00Overcast Clouds12°C4 mph, W100%10000m1026hPa80%
25-Jun-2024 15:00Overcast Clouds13°C4 mph, W100%10000m1026hPa77%
25-Jun-2024 18:00Overcast Clouds12°C4 mph, NW100%10000m1025hPa81%
25-Jun-2024 21:00Light Rain11°C4 mph, N100%10000m1024hPa92%
26-Jun-2024 00:00Moderate Rain11°C2 mph, N100%10000m1024hPa99%
26-Jun-2024 03:00Moderate Rain11°C4 mph, NE100%8957m1022hPa99%
26-Jun-2024 06:00Moderate Rain11°C2 mph, N100%10000m1019hPa99%
26-Jun-2024 09:00Light Rain11°C2 mph, W100%10000m1016hPa99%
26-Jun-2024 12:00Moderate Rain12°C2 mph, W100%10000m1015hPa99%
26-Jun-2024 15:00Light Rain15°C2 mph, SW98%10000m1014hPa96%
26-Jun-2024 18:00Light Rain17°C4 mph, SW96%10000m1014hPa92%
26-Jun-2024 21:00Light Rain13°C4 mph, SW96%10000m1016hPa92%
27-Jun-2024 00:00Overcast Clouds12°C2 mph, SW97%10000m1018hPa91%
27-Jun-2024 03:00Scattered Clouds9°C2 mph, W38%10000m1017hPa98%
27-Jun-2024 06:00Few Clouds8°C2 mph, NW23%10000m1016hPa98%
27-Jun-2024 09:00Clear Sky7°C0 mph, W5%10000m1017hPa96%
27-Jun-2024 12:00Clear Sky11°C0 mph, NW3%10000m1017hPa80%
27-Jun-2024 15:00Clear Sky17°C0 mph, E0%10000m1016hPa50%
27-Jun-2024 18:00Clear Sky18°C2 mph, E0%10000m1014hPa53%
27-Jun-2024 21:00Clear Sky12°C4 mph, NE0%10000m1013hPa85%
28-Jun-2024 00:00Few Clouds11°C2 mph, NW19%10000m1014hPa86%
28-Jun-2024 03:00Scattered Clouds10°C2 mph, N41%10000m1012hPa84%
28-Jun-2024 06:00Scattered Clouds10°C2 mph, NW37%10000m1010hPa83%
28-Jun-2024 09:00Clear Sky10°C2 mph, NW8%10000m1009hPa76%
28-Jun-2024 12:00Scattered Clouds14°C0 mph, SW33%10000m1010hPa71%
28-Jun-2024 15:00Overcast Clouds18°C2 mph, S100%10000m1011hPa65%
28-Jun-2024 18:00Overcast Clouds18°C2 mph, SE100%10000m1009hPa73%
28-Jun-2024 21:00Overcast Clouds15°C0 mph, E100%10000m1012hPa87%
29-Jun-2024 00:00Overcast Clouds14°C0 mph, SW100%10000m1014hPa90%
29-Jun-2024 03:00Overcast Clouds14°C4 mph, SW100%10000m1016hPa85%
29-Jun-2024 06:00Overcast Clouds12°C7 mph, SW98%10000m1017hPa87%
29-Jun-2024 09:00Overcast Clouds11°C4 mph, SW96%10000m1018hPa88%
29-Jun-2024 12:00Overcast Clouds11°C4 mph, SW98%10000m1020hPa74%
29-Jun-2024 15:00Overcast Clouds12°C4 mph, SW100%10000m1021hPa72%
29-Jun-2024 18:00Overcast Clouds14°C4 mph, S100%10000m1020hPa61%
29-Jun-2024 21:00Overcast Clouds9°C2 mph, SW100%10000m1022hPa66%
30-Jun-2024 00:00Overcast Clouds7°C4 mph, SW100%10000m1024hPa73%
30-Jun-2024 03:00Overcast Clouds5°C2 mph, W97%10000m1025hPa83%
30-Jun-2024 06:00Overcast Clouds4°C2 mph, W98%10000m1025hPa83%
30-Jun-2024 09:00Overcast Clouds4°C2 mph, W100%10000m1025hPa83%